AWC448W EGKK-EGSS
Flight info
| Callsign | AWC448W |
|---|---|
| Flight time | 0h 27m |
| Altitude | 9000 |
| Route | FRANE1Z FRANE DCT DET DET2A |
| Aircraft | A320/M-SDE3FGHIRWY/LB1 |
Departure
| Time | 2026-05-04 13:43 |
|---|---|
| Airport | London Gatwick Airport (EGKK) |
Arrival
| Time | 2026-05-04 14:10 |
|---|---|
| Airport | London Stansted Airport (EGSS) |
| Time | Latitude | Longitude | Altitude | Speed | Heading |
|---|---|---|---|---|---|
| 2026-05-04 13:18 | 51.15378 | -0.18402 | 205 ft | 0 kts | 258° |
| 2026-05-04 13:28 | 51.15379 | -0.18395 | 205 ft | 2 kts | 258° |
| 2026-05-04 13:29 | 51.15382 | -0.18368 | 205 ft | 2 kts | 258° |
| 2026-05-04 13:29 | 51.15386 | -0.18341 | 205 ft | 2 kts | 258° |
| 2026-05-04 13:29 | 51.15389 | -0.18314 | 217 ft | 2 kts | 232° |
| 2026-05-04 13:29 | 51.15402 | -0.18296 | 216 ft | 2 kts | 217° |
| 2026-05-04 13:30 | 51.15415 | -0.18285 | 215 ft | 0 kts | 172° |
| 2026-05-04 13:32 | 51.15412 | -0.18284 | 215 ft | 1 kts | 172° |
| 2026-05-04 13:32 | 51.15402 | -0.18282 | 215 ft | 2 kts | 172° |
| 2026-05-04 13:32 | 51.15382 | -0.18277 | 209 ft | 4 kts | 171° |
| 2026-05-04 13:32 | 51.15350 | -0.18266 | 207 ft | 6 kts | 168° |
| 2026-05-04 13:33 | 51.15304 | -0.18250 | 215 ft | 8 kts | 167° |
| 2026-05-04 13:33 | 51.15242 | -0.18229 | 208 ft | 10 kts | 167° |
| 2026-05-04 13:33 | 51.15193 | -0.18285 | 211 ft | 11 kts | 252° |
| 2026-05-04 13:33 | 51.15175 | -0.18416 | 205 ft | 13 kts | 258° |
| 2026-05-04 13:34 | 51.15153 | -0.18571 | 208 ft | 15 kts | 257° |
| 2026-05-04 13:34 | 51.15126 | -0.18764 | 211 ft | 20 kts | 257° |
| 2026-05-04 13:34 | 51.15100 | -0.18959 | 208 ft | 17 kts | 258° |
| 2026-05-04 13:34 | 51.15074 | -0.19152 | 209 ft | 16 kts | 258° |
| 2026-05-04 13:35 | 51.15049 | -0.19333 | 205 ft | 17 kts | 258° |
| 2026-05-04 13:35 | 51.15001 | -0.19682 | 210 ft | 18 kts | 257° |
| 2026-05-04 13:35 | 51.14975 | -0.19866 | 205 ft | 17 kts | 257° |
| 2026-05-04 13:36 | 51.14952 | -0.20033 | 209 ft | 15 kts | 257° |
| 2026-05-04 13:36 | 51.14932 | -0.20173 | 206 ft | 12 kts | 257° |
| 2026-05-04 13:36 | 51.14914 | -0.20307 | 205 ft | 13 kts | 258° |
| 2026-05-04 13:36 | 51.14894 | -0.20454 | 209 ft | 15 kts | 258° |
| 2026-05-04 13:37 | 51.14871 | -0.20619 | 210 ft | 15 kts | 257° |
| 2026-05-04 13:37 | 51.14848 | -0.20785 | 205 ft | 16 kts | 258° |
| 2026-05-04 13:37 | 51.14823 | -0.20967 | 210 ft | 16 kts | 257° |
| 2026-05-04 13:37 | 51.14806 | -0.21088 | 209 ft | 17 kts | 257° |
| 2026-05-04 13:38 | 51.14770 | -0.21279 | 205 ft | 12 kts | 257° |
| 2026-05-04 13:38 | 51.14745 | -0.21392 | 213 ft | 11 kts | 225° |
| 2026-05-04 13:38 | 51.14671 | -0.21379 | 207 ft | 12 kts | 140° |
| 2026-05-04 13:38 | 51.14612 | -0.21329 | 211 ft | 7 kts | 165° |
| 2026-05-04 13:39 | 51.14607 | -0.21327 | 205 ft | 0 kts | 166° |
| 2026-05-04 13:40 | 51.14605 | -0.21326 | 205 ft | 1 kts | 166° |
| 2026-05-04 13:40 | 51.14597 | -0.21322 | 210 ft | 2 kts | 166° |
| 2026-05-04 13:40 | 51.14553 | -0.21288 | 214 ft | 11 kts | 145° |
| 2026-05-04 13:41 | 51.14518 | -0.21191 | 209 ft | 9 kts | 89° |
| 2026-05-04 13:41 | 51.14521 | -0.21173 | 209 ft | 0 kts | 79° |
| 2026-05-04 13:42 | 51.14521 | -0.21170 | 208 ft | 2 kts | 79° |
| 2026-05-04 13:42 | 51.14557 | -0.20902 | 213 ft | 58 kts | 77° |
| 2026-05-04 13:42 | 51.14691 | -0.19943 | 212 ft | 117 kts | 77° |
| 2026-05-04 13:42 | 51.14895 | -0.18433 | 264 ft | 154 kts | 78° |
| 2026-05-04 13:43 | 51.15105 | -0.16859 | 956 ft | 140 kts | 78° |
| 2026-05-04 13:43 | 51.15306 | -0.15349 | 1413 ft | 145 kts | 78° |
| 2026-05-04 13:43 | 51.15535 | -0.13666 | 1700 ft | 167 kts | 77° |
| 2026-05-04 13:43 | 51.15814 | -0.11672 | 1870 ft | 200 kts | 77° |
| 2026-05-04 13:44 | 51.16135 | -0.09376 | 2294 ft | 225 kts | 77° |
| 2026-05-04 13:44 | 51.16491 | -0.06806 | 2821 ft | 249 kts | 77° |
| 2026-05-04 13:44 | 51.16846 | -0.04081 | 3579 ft | 259 kts | 83° |
| 2026-05-04 13:44 | 51.16865 | -0.01190 | 4447 ft | 264 kts | 91° |
| 2026-05-04 13:45 | 51.16813 | 0.01754 | 5303 ft | 269 kts | 91° |
| 2026-05-04 13:45 | 51.16754 | 0.04763 | 6159 ft | 274 kts | 92° |
| 2026-05-04 13:45 | 51.16718 | 0.07827 | 6978 ft | 279 kts | 86° |
| 2026-05-04 13:45 | 51.17202 | 0.10826 | 7787 ft | 283 kts | 67° |
| 2026-05-04 13:46 | 51.17985 | 0.13730 | 8584 ft | 288 kts | 67° |
| 2026-05-04 13:46 | 51.18772 | 0.16610 | 8898 ft | 291 kts | 67° |
| 2026-05-04 13:46 | 51.19583 | 0.19562 | 8989 ft | 290 kts | 67° |
| 2026-05-04 13:46 | 51.20391 | 0.22510 | 9005 ft | 290 kts | 67° |
| 2026-05-04 13:47 | 51.21193 | 0.25456 | 8998 ft | 290 kts | 67° |
| 2026-05-04 13:47 | 51.21994 | 0.28406 | 9000 ft | 290 kts | 67° |
| 2026-05-04 13:47 | 51.22794 | 0.31359 | 9000 ft | 290 kts | 67° |
| 2026-05-04 13:47 | 51.23591 | 0.34317 | 9005 ft | 290 kts | 67° |
| 2026-05-04 13:48 | 51.24390 | 0.37281 | 9000 ft | 290 kts | 67° |
| 2026-05-04 13:48 | 51.25187 | 0.40242 | 9002 ft | 290 kts | 67° |
| 2026-05-04 13:48 | 51.25984 | 0.43204 | 9002 ft | 290 kts | 67° |
| 2026-05-04 13:48 | 51.26780 | 0.46166 | 9003 ft | 290 kts | 68° |
| 2026-05-04 13:49 | 51.27576 | 0.49133 | 9002 ft | 291 kts | 67° |
| 2026-05-04 13:49 | 51.28370 | 0.52105 | 9008 ft | 291 kts | 67° |
| 2026-05-04 13:49 | 51.29219 | 0.55039 | 9004 ft | 291 kts | 58° |
| 2026-05-04 13:49 | 51.30529 | 0.57491 | 9014 ft | 291 kts | 38° |
| 2026-05-04 13:50 | 51.32269 | 0.59107 | 9018 ft | 290 kts | 19° |
| 2026-05-04 13:50 | 51.34239 | 0.59742 | 9041 ft | 289 kts | 359° |
| 2026-05-04 13:50 | 51.36244 | 0.59752 | 9039 ft | 289 kts | 358° |
| 2026-05-04 13:50 | 51.38247 | 0.59752 | 9031 ft | 288 kts | 359° |
| 2026-05-04 13:51 | 51.40224 | 0.59753 | 9022 ft | 288 kts | 358° |
| 2026-05-04 13:51 | 51.42229 | 0.59755 | 9025 ft | 289 kts | 358° |
| 2026-05-04 13:51 | 51.44241 | 0.59760 | 9022 ft | 289 kts | 359° |
| 2026-05-04 13:51 | 51.46254 | 0.59772 | 9032 ft | 289 kts | 358° |
| 2026-05-04 13:52 | 51.50290 | 0.59794 | 9039 ft | 290 kts | 358° |
| 2026-05-04 13:52 | 51.52304 | 0.59803 | 9042 ft | 290 kts | 359° |
| 2026-05-04 13:52 | 51.54322 | 0.59808 | 9043 ft | 290 kts | 358° |
| 2026-05-04 13:53 | 51.56344 | 0.59811 | 9045 ft | 290 kts | 358° |
| 2026-05-04 13:53 | 51.58361 | 0.59816 | 9048 ft | 290 kts | 358° |
| 2026-05-04 13:53 | 51.60368 | 0.59823 | 9050 ft | 290 kts | 358° |
| 2026-05-04 13:54 | 51.64415 | 0.59839 | 9051 ft | 290 kts | 358° |
| 2026-05-04 13:54 | 51.66430 | 0.59845 | 9050 ft | 290 kts | 358° |
| 2026-05-04 13:54 | 51.70458 | 0.59855 | 9027 ft | 289 kts | 358° |
| 2026-05-04 13:55 | 51.72467 | 0.59861 | 9026 ft | 289 kts | 358° |
| 2026-05-04 13:55 | 51.76467 | 0.59874 | 8618 ft | 286 kts | 358° |
| 2026-05-04 13:55 | 51.78428 | 0.59882 | 8277 ft | 284 kts | 358° |
| 2026-05-04 13:56 | 51.80404 | 0.59889 | 7956 ft | 283 kts | 358° |
| 2026-05-04 13:56 | 51.82368 | 0.59894 | 7670 ft | 282 kts | 359° |
| 2026-05-04 13:56 | 51.86192 | 0.59014 | 7081 ft | 276 kts | 342° |
| 2026-05-04 13:57 | 51.88019 | 0.58093 | 7016 ft | 276 kts | 341° |
| 2026-05-04 13:57 | 51.89856 | 0.57146 | 7036 ft | 277 kts | 341° |
| 2026-05-04 13:58 | 51.95303 | 0.54343 | 7035 ft | 277 kts | 341° |
| 2026-05-04 13:58 | 51.99019 | 0.52414 | 6839 ft | 276 kts | 342° |
| 2026-05-04 13:58 | 52.00840 | 0.51449 | 6506 ft | 274 kts | 339° |
| 2026-05-04 13:59 | 52.02425 | 0.49810 | 6189 ft | 271 kts | 311° |
| 2026-05-04 13:59 | 52.03337 | 0.47196 | 5859 ft | 267 kts | 283° |
| 2026-05-04 13:59 | 52.02892 | 0.41374 | 5142 ft | 263 kts | 252° |
| 2026-05-04 14:00 | 52.02293 | 0.38594 | 4997 ft | 261 kts | 243° |
| 2026-05-04 14:00 | 52.00366 | 0.33537 | 5012 ft | 265 kts | 236° |
| 2026-05-04 14:00 | 51.99356 | 0.31036 | 5011 ft | 264 kts | 236° |
| 2026-05-04 14:01 | 51.98348 | 0.28545 | 5002 ft | 264 kts | 236° |
| 2026-05-04 14:01 | 51.97351 | 0.26082 | 5007 ft | 264 kts | 236° |
| 2026-05-04 14:01 | 51.95329 | 0.21100 | 5012 ft | 264 kts | 236° |
| 2026-05-04 14:02 | 51.94317 | 0.18616 | 4897 ft | 264 kts | 236° |
| 2026-05-04 14:02 | 51.93308 | 0.16143 | 4587 ft | 263 kts | 236° |
| 2026-05-04 14:02 | 51.92304 | 0.13688 | 4375 ft | 257 kts | 236° |
| 2026-05-04 14:02 | 51.91176 | 0.11530 | 4243 ft | 247 kts | 224° |
| 2026-05-04 14:03 | 51.89925 | 0.09687 | 4074 ft | 240 kts | 221° |
| 2026-05-04 14:03 | 51.88686 | 0.07925 | 3878 ft | 234 kts | 221° |
| 2026-05-04 14:03 | 51.87470 | 0.06206 | 3674 ft | 232 kts | 221° |
| 2026-05-04 14:03 | 51.86256 | 0.04494 | 3468 ft | 231 kts | 221° |
| 2026-05-04 14:04 | 51.83411 | 0.02122 | 2971 ft | 231 kts | 201° |
| 2026-05-04 14:04 | 51.81921 | 0.01191 | 2722 ft | 228 kts | 201° |
| 2026-05-04 14:04 | 51.80458 | 0.00283 | 2547 ft | 220 kts | 201° |
| 2026-05-04 14:05 | 51.77576 | -0.00574 | 2542 ft | 212 kts | 159° |
| 2026-05-04 14:05 | 51.76411 | 0.00778 | 2502 ft | 208 kts | 122° |
| 2026-05-04 14:05 | 51.75947 | 0.02939 | 2512 ft | 205 kts | 89° |
| 2026-05-04 14:06 | 51.76308 | 0.05105 | 2514 ft | 200 kts | 54° |
| 2026-05-04 14:06 | 51.77267 | 0.06727 | 2509 ft | 200 kts | 41° |
| 2026-05-04 14:06 | 51.78252 | 0.08175 | 2498 ft | 187 kts | 41° |
| 2026-05-04 14:06 | 51.79208 | 0.09591 | 2541 ft | 184 kts | 41° |
| 2026-05-04 14:07 | 51.80132 | 0.10965 | 2380 ft | 180 kts | 41° |
| 2026-05-04 14:07 | 51.81030 | 0.12306 | 2160 ft | 171 kts | 40° |
| 2026-05-04 14:07 | 51.81883 | 0.13580 | 1931 ft | 158 kts | 40° |
| 2026-05-04 14:07 | 51.82647 | 0.14722 | 1743 ft | 146 kts | 39° |
| 2026-05-04 14:08 | 51.83376 | 0.15810 | 1545 ft | 140 kts | 40° |
| 2026-05-04 14:08 | 51.84089 | 0.16876 | 1374 ft | 137 kts | 39° |
| 2026-05-04 14:08 | 51.84787 | 0.17919 | 1172 ft | 137 kts | 40° |
| 2026-05-04 14:08 | 51.85484 | 0.18960 | 1021 ft | 135 kts | 42° |
| 2026-05-04 14:09 | 51.86870 | 0.21027 | 599 ft | 132 kts | 41° |
| 2026-05-04 14:09 | 51.87536 | 0.22031 | 422 ft | 130 kts | 41° |
| 2026-05-04 14:10 | 51.88606 | 0.23632 | 338 ft | 61 kts | 42° |
| 2026-05-04 14:10 | 51.88823 | 0.23993 | 337 ft | 39 kts | 55° |
| 2026-05-04 14:10 | 51.88897 | 0.24315 | 345 ft | 23 kts | 71° |
| 2026-05-04 14:10 | 51.88909 | 0.24512 | 354 ft | 14 kts | 107° |
| 2026-05-04 14:11 | 51.88947 | 0.24635 | 351 ft | 14 kts | 44° |
| 2026-05-04 14:11 | 51.89110 | 0.24878 | 352 ft | 17 kts | 43° |
| 2026-05-04 14:11 | 51.89198 | 0.25013 | 349 ft | 16 kts | 48° |
| 2026-05-04 14:12 | 51.89259 | 0.25159 | 352 ft | 14 kts | 56° |
| 2026-05-04 14:12 | 51.89332 | 0.25281 | 349 ft | 16 kts | 40° |
| 2026-05-04 14:12 | 51.89505 | 0.25544 | 353 ft | 19 kts | 43° |
| 2026-05-04 14:13 | 51.89606 | 0.25696 | 351 ft | 21 kts | 44° |
| 2026-05-04 14:13 | 51.89709 | 0.25851 | 353 ft | 22 kts | 42° |
| 2026-05-04 14:13 | 51.89782 | 0.25961 | 349 ft | 20 kts | 43° |
| 2026-05-04 14:13 | 51.89783 | 0.25963 | 349 ft | 19 kts | 43° |
| 2026-05-04 14:14 | 51.89780 | 0.26136 | 354 ft | 19 kts | 135° |
| 2026-05-04 14:14 | 51.89585 | 0.26472 | 353 ft | 21 kts | 133° |
| 2026-05-04 14:14 | 51.89513 | 0.26565 | 350 ft | 9 kts | 189° |
| 2026-05-04 14:15 | 51.89466 | 0.26503 | 349 ft | 0 kts | 222° |